createdAt,value
2022-09-28T00:01:07.536Z,99151.53
2022-09-28T00:03:34.866Z,99152.44
2022-09-28T00:06:07.221Z,99142.84
2022-09-28T00:08:35.847Z,99137.81
2022-09-28T00:11:04.661Z,99145.06
2022-09-28T00:13:33.284Z,99143.56
2022-09-28T00:16:01.078Z,99137.50
2022-09-28T00:18:28.520Z,99130.94
2022-09-28T00:21:06.818Z,99154.59
2022-09-28T00:23:34.429Z,99134.44
2022-09-28T00:26:06.105Z,99142.38
2022-09-28T00:28:32.941Z,99147.44
2022-09-28T00:30:59.712Z,99147.31
2022-09-28T00:33:26.697Z,99143.94
2022-09-28T00:35:58.214Z,99147.34
2022-09-28T00:38:29.388Z,99142.22
2022-09-28T00:40:56.551Z,99150.19
2022-09-28T00:43:24.400Z,99156.28
2022-09-28T00:46:00.327Z,99159.84
2022-09-28T00:48:32.361Z,99160.84
2022-09-28T00:51:03.210Z,99159.94
2022-09-28T00:53:34.988Z,99154.25
2022-09-28T00:56:07.575Z,99149.13
2022-09-28T00:58:41.816Z,99159.53
2022-09-28T01:01:08.728Z,99151.78
2022-09-28T01:03:36.735Z,99152.50
2022-09-28T01:06:06.584Z,99158.69
2022-09-28T01:08:34.525Z,99147.44
2022-09-28T01:11:02.070Z,99165.19
2022-09-28T01:13:35.316Z,99162.22
2022-09-28T01:16:19.412Z,99159.41
2022-09-28T01:19:10.404Z,99162.56
2022-09-28T01:21:52.409Z,99155.72
2022-09-28T01:24:34.905Z,99155.00
2022-09-28T01:27:15.123Z,99158.03
2022-09-28T01:30:02.148Z,99153.59
2022-09-28T01:32:37.289Z,99166.88
2022-09-28T01:35:15.877Z,99164.94
2022-09-28T01:38:17.357Z,99174.47
2022-09-28T01:40:47.507Z,99174.50
2022-09-28T01:43:26.637Z,99167.00
2022-09-28T01:45:56.081Z,99173.13
2022-09-28T01:48:31.445Z,99175.81
2022-09-28T01:51:02.000Z,99160.22
2022-09-28T01:53:43.312Z,99173.53
2022-09-28T01:56:24.319Z,99177.03
2022-09-28T01:58:56.361Z,99179.47
2022-09-28T02:01:53.563Z,99183.47
2022-09-28T02:04:26.954Z,99187.59
2022-09-28T02:06:58.827Z,99184.56
2022-09-28T02:09:36.043Z,99194.72
2022-09-28T02:12:16.177Z,99191.03
2022-09-28T02:14:47.015Z,99199.34
2022-09-28T02:17:16.190Z,99192.56
2022-09-28T02:19:43.759Z,99190.88
2022-09-28T02:22:13.279Z,99190.28
2022-09-28T02:24:44.706Z,99194.72
2022-09-28T02:27:42.342Z,99188.69
2022-09-28T02:30:10.388Z,99199.53
2022-09-28T02:32:42.614Z,99208.81
2022-09-28T02:35:12.300Z,99205.81
2022-09-28T02:37:40.576Z,99210.53
2022-09-28T02:40:19.958Z,99199.97
2022-09-28T02:42:49.884Z,99211.81
2022-09-28T02:45:41.570Z,99212.94
2022-09-28T02:48:14.021Z,99213.09
2022-09-28T02:51:04.136Z,99194.81
2022-09-28T02:53:46.718Z,99205.72
2022-09-28T02:56:19.218Z,99199.81
2022-09-28T02:59:24.980Z,99201.72
2022-09-28T03:01:51.792Z,99190.88
2022-09-28T03:04:52.784Z,99189.94
2022-09-28T03:07:28.684Z,99208.75
2022-09-28T03:10:19.798Z,99225.31
2022-09-28T03:12:49.037Z,99217.78
2022-09-28T03:15:23.603Z,99210.13
2022-09-28T03:17:50.450Z,99215.63
2022-09-28T03:20:17.783Z,99208.91
2022-09-28T03:23:00.304Z,99207.91
2022-09-28T03:25:31.884Z,99221.38
2022-09-28T03:27:58.784Z,99206.94
2022-09-28T03:30:25.595Z,99205.41
2022-09-28T03:33:00.172Z,99184.66
2022-09-28T03:35:27.181Z,99213.72
2022-09-28T03:37:57.581Z,99210.53
2022-09-28T03:40:24.555Z,99211.81
2022-09-28T03:42:51.441Z,99216.75
2022-09-28T03:45:18.263Z,99211.84
2022-09-28T03:47:46.711Z,99218.25
2022-09-28T03:50:13.845Z,99222.91
2022-09-28T03:52:40.693Z,99219.41
2022-09-28T03:55:07.783Z,99231.75
2022-09-28T03:57:34.629Z,99222.06
2022-09-28T04:00:01.608Z,99223.78
2022-09-28T04:02:28.399Z,99238.75
2022-09-28T04:04:55.188Z,99234.66
2022-09-28T04:07:21.903Z,99229.16
2022-09-28T04:09:49.253Z,99238.19
2022-09-28T04:12:15.995Z,99229.72
2022-09-28T04:14:42.813Z,99230.47
2022-09-28T04:17:09.538Z,99222.81
2022-09-28T04:19:36.292Z,99209.03
2022-09-28T04:22:03.170Z,99230.87
2022-09-28T04:24:29.895Z,99226.63
2022-09-28T04:27:16.641Z,99224.84
2022-09-28T04:29:44.167Z,99240.81
2022-09-28T04:32:11.993Z,99231.59
2022-09-28T04:34:43.742Z,99242.72
2022-09-28T04:37:10.965Z,99225.28
2022-09-28T04:39:38.005Z,99227.00
2022-09-28T04:42:05.627Z,99220.03
2022-09-28T04:44:32.465Z,99224.69
2022-09-28T04:47:02.962Z,99222.81
2022-09-28T04:49:31.963Z,99219.25
2022-09-28T04:51:58.724Z,99212.41
2022-09-28T04:54:25.484Z,99229.91
2022-09-28T04:56:53.411Z,99235.25
2022-09-28T04:59:20.361Z,99223.09
2022-09-28T05:01:47.595Z,99230.19
2022-09-28T05:04:14.366Z,99217.97
2022-09-28T05:06:41.289Z,99220.78
2022-09-28T05:09:09.527Z,99216.47
2022-09-28T05:11:36.351Z,99220.78
2022-09-28T05:14:03.269Z,99235.00
2022-09-28T05:16:33.749Z,99238.50
2022-09-28T05:19:00.703Z,99239.31
2022-09-28T05:21:29.295Z,99243.59
2022-09-28T05:23:56.753Z,99248.28
2022-09-28T05:26:23.742Z,99243.81
2022-09-28T05:28:51.030Z,99249.25
2022-09-28T05:31:17.951Z,99256.31
2022-09-28T05:33:44.762Z,99241.38
2022-09-28T05:36:11.774Z,99241.44
2022-09-28T05:38:38.585Z,99246.66
2022-09-28T05:41:06.692Z,99248.16
2022-09-28T05:43:33.902Z,99262.37
2022-09-28T05:46:00.930Z,99244.59
2022-09-28T05:48:28.420Z,99250.56
2022-09-28T05:50:55.906Z,99254.94
2022-09-28T05:53:22.752Z,99244.28
2022-09-28T05:55:49.577Z,99250.34
2022-09-28T05:58:17.064Z,99247.41
2022-09-28T06:00:44.134Z,99243.75
2022-09-28T06:03:13.630Z,99251.50
2022-09-28T06:05:41.033Z,99246.16
2022-09-28T06:08:12.907Z,99251.12
2022-09-28T06:10:40.119Z,99252.56
2022-09-28T06:13:07.858Z,99247.91
2022-09-28T06:15:36.374Z,99245.03
2022-09-28T06:18:15.058Z,99232.63
2022-09-28T06:20:42.964Z,99231.53
2022-09-28T06:23:11.401Z,99228.09
2022-09-28T06:25:39.051Z,99233.84
2022-09-28T06:28:10.106Z,99238.13
2022-09-28T06:30:38.578Z,99242.19
2022-09-28T06:33:08.398Z,99247.16
2022-09-28T06:35:35.861Z,99253.03
2022-09-28T06:38:03.230Z,99247.47
2022-09-28T06:40:30.688Z,99247.22
2022-09-28T06:42:59.899Z,99246.03
2022-09-28T06:45:28.920Z,99245.81
2022-09-28T06:48:00.535Z,99246.94
2022-09-28T06:50:32.429Z,99242.16
2022-09-28T06:53:03.814Z,99245.69
2022-09-28T06:55:30.778Z,99254.72
2022-09-28T06:57:59.472Z,99242.56
2022-09-28T07:00:32.922Z,99246.34
2022-09-28T07:03:02.196Z,99244.44
2022-09-28T07:05:30.008Z,99249.41
2022-09-28T07:07:59.575Z,99246.31
2022-09-28T07:10:28.743Z,99248.16
2022-09-28T07:12:57.201Z,99250.38
2022-09-28T07:15:24.683Z,99256.44
2022-09-28T07:18:02.618Z,99254.75
2022-09-28T07:20:31.269Z,99249.81
2022-09-28T07:23:11.333Z,99252.72
2022-09-28T07:25:45.664Z,99255.53
2022-09-28T07:28:12.531Z,99254.87
2022-09-28T07:30:39.781Z,99250.12
2022-09-28T07:33:09.498Z,99244.84
2022-09-28T07:35:36.408Z,99243.66
2022-09-28T07:38:06.217Z,99239.19
2022-09-28T07:40:53.346Z,99243.66
2022-09-28T07:43:21.607Z,99243.72
2022-09-28T07:45:55.825Z,99244.19
2022-09-28T07:48:23.149Z,99238.13
2022-09-28T07:50:53.719Z,99242.62
2022-09-28T07:53:22.965Z,99237.59
2022-09-28T07:56:02.095Z,99230.06
2022-09-28T07:58:29.389Z,99227.59
2022-09-28T08:00:56.240Z,99231.13
2022-09-28T08:03:23.066Z,99226.03
2022-09-28T08:05:50.079Z,99229.78
2022-09-28T08:08:16.971Z,99241.34
2022-09-28T08:10:46.855Z,99248.44
2022-09-28T08:13:15.293Z,99242.88
2022-09-28T08:15:42.718Z,99232.38
2022-09-28T08:18:10.184Z,99235.94
2022-09-28T08:20:55.518Z,99239.00
2022-09-28T08:23:23.646Z,99235.47
2022-09-28T08:25:55.223Z,99242.66
2022-09-28T08:28:23.340Z,99237.91
2022-09-28T08:30:51.017Z,99230.69
2022-09-28T08:33:21.291Z,99237.28
2022-09-28T08:35:54.758Z,99234.19
2022-09-28T08:38:21.659Z,99237.19
2022-09-28T08:41:05.963Z,99243.38
2022-09-28T08:44:04.786Z,99216.63
2022-09-28T08:46:37.115Z,99215.25
2022-09-28T08:49:24.574Z,99200.91
2022-09-28T08:52:16.456Z,99193.94
2022-09-28T08:55:09.927Z,99189.66
2022-09-28T08:57:56.951Z,99200.37
2022-09-28T09:00:49.076Z,99189.69
2022-09-28T09:03:23.818Z,99190.91
2022-09-28T09:06:19.054Z,99192.75
2022-09-28T09:09:20.117Z,99202.19
2022-09-28T09:12:06.381Z,99197.97
2022-09-28T09:14:33.182Z,99186.84
2022-09-28T09:17:13.967Z,99199.28
2022-09-28T09:20:05.920Z,99194.59
2022-09-28T09:22:41.352Z,99205.84
2022-09-28T09:25:26.056Z,99200.66
2022-09-28T09:28:04.904Z,99191.16
2022-09-28T09:30:44.608Z,99201.78
2022-09-28T09:33:15.864Z,99200.94
2022-09-28T09:36:10.475Z,99203.34
2022-09-28T09:38:58.423Z,99204.31
2022-09-28T09:42:05.873Z,99208.03
2022-09-28T09:44:54.846Z,99202.00
2022-09-28T09:47:29.449Z,99197.00
2022-09-28T09:50:08.369Z,99193.00
2022-09-28T09:53:19.036Z,99190.66
2022-09-28T09:55:48.420Z,99189.03
2022-09-28T09:58:25.756Z,99187.88
2022-09-28T10:00:55.920Z,99194.28
2022-09-28T10:03:27.131Z,99194.88
2022-09-28T10:06:01.741Z,99197.41
2022-09-28T10:08:31.073Z,99196.41
2022-09-28T10:11:22.269Z,99197.06
2022-09-28T10:13:49.340Z,99199.69
2022-09-28T10:16:19.776Z,99200.22
2022-09-28T10:18:47.575Z,99209.37
2022-09-28T10:21:15.804Z,99202.09
2022-09-28T10:23:43.495Z,99197.75
2022-09-28T10:26:25.375Z,99210.34
2022-09-28T10:28:58.984Z,99199.97
2022-09-28T10:31:39.571Z,99189.56
2022-09-28T10:34:08.799Z,99208.63
2022-09-28T10:36:44.804Z,99216.81
2022-09-28T10:39:39.138Z,99217.72
2022-09-28T10:42:12.300Z,99200.69
2022-09-28T10:45:01.148Z,99197.06
2022-09-28T10:47:32.654Z,99189.31
2022-09-28T10:50:00.903Z,99178.97
2022-09-28T10:52:32.028Z,99192.31
2022-09-28T10:55:32.394Z,99193.53
2022-09-28T10:58:00.192Z,99200.91
2022-09-28T11:00:29.853Z,99177.13
2022-09-28T11:02:57.151Z,99179.22
2022-09-28T11:05:30.000Z,99179.22
2022-09-28T11:08:00.114Z,99180.72
2022-09-28T11:10:29.830Z,99162.37
2022-09-28T11:12:57.471Z,99167.44
2022-09-28T11:15:30.407Z,99168.91
2022-09-28T11:18:17.388Z,99170.34
2022-09-28T11:20:45.523Z,99173.44
2022-09-28T11:23:23.383Z,99167.12
2022-09-28T11:26:09.591Z,99154.00
2022-09-28T11:28:37.631Z,99157.69
2022-09-28T11:31:08.187Z,99159.72
2022-09-28T11:33:38.818Z,99156.03
2022-09-28T11:36:14.588Z,99150.28
2022-09-28T11:38:50.423Z,99160.25
2022-09-28T11:41:26.326Z,99162.37
2022-09-28T11:44:06.369Z,99151.66
2022-09-28T11:46:58.238Z,99155.31
2022-09-28T11:50:03.602Z,99161.00
2022-09-28T11:52:47.061Z,99158.62
2022-09-28T11:56:08.724Z,99149.00
2022-09-28T11:58:44.487Z,99153.31
2022-09-28T12:01:23.596Z,99138.53
2022-09-28T12:03:53.897Z,99145.53
2022-09-28T12:06:31.393Z,99124.91
2022-09-28T12:09:06.990Z,99121.69
2022-09-28T12:11:39.209Z,99135.72
2022-09-28T12:14:14.858Z,99120.62
2022-09-28T12:17:09.832Z,99109.97
2022-09-28T12:19:41.340Z,99110.44
2022-09-28T12:22:21.444Z,99104.59
2022-09-28T12:24:57.390Z,99106.81
2022-09-28T12:27:39.027Z,99107.81
2022-09-28T12:30:13.772Z,99093.94
2022-09-28T12:32:50.800Z,99106.16
2022-09-28T12:35:42.719Z,99096.28
2022-09-28T12:38:46.011Z,99090.16
2022-09-28T12:41:28.516Z,99085.97
2022-09-28T12:44:17.606Z,99084.09
2022-09-28T12:47:05.566Z,99076.28
2022-09-28T12:50:37.213Z,99068.84
2022-09-28T12:52:46.591Z,99083.94
2022-09-28T12:56:06.336Z,99069.34
2022-09-28T12:58:33.194Z,99076.31
2022-09-28T13:01:30.949Z,99079.50
2022-09-28T13:04:35.645Z,99083.53
2022-09-28T13:07:12.589Z,99077.75
2022-09-28T13:09:54.440Z,99075.22
2022-09-28T13:12:24.547Z,99076.94
2022-09-28T13:15:15.784Z,99068.19
2022-09-28T13:17:45.074Z,99084.19
2022-09-28T13:20:33.088Z,99075.34
2022-09-28T13:23:08.733Z,99078.16
2022-09-28T13:25:41.025Z,99074.44
2022-09-28T13:28:10.563Z,99072.25
2022-09-28T13:30:39.850Z,99061.66
2022-09-28T13:33:14.183Z,99061.28
2022-09-28T13:35:44.301Z,99070.94
2022-09-28T13:38:17.556Z,99076.53
2022-09-28T13:41:06.761Z,99073.59
2022-09-28T13:43:45.350Z,99063.94
2022-09-28T13:46:48.182Z,99086.97
2022-09-28T13:49:52.859Z,99077.50
2022-09-28T13:52:31.841Z,99080.97
2022-09-28T13:55:25.067Z,99064.44
2022-09-28T13:58:04.538Z,99020.34
2022-09-28T14:01:00.031Z,99066.44
2022-09-28T14:03:42.916Z,99067.25
2022-09-28T14:06:31.205Z,99070.19
2022-09-28T14:09:12.843Z,99070.50
2022-09-28T14:11:42.597Z,99060.62
2022-09-28T14:14:13.832Z,99064.41
2022-09-28T14:16:42.321Z,99056.22
2022-09-28T14:19:13.389Z,99055.72
2022-09-28T14:21:58.383Z,99073.31
2022-09-28T14:24:55.753Z,99071.75
2022-09-28T14:28:04.932Z,99078.13
2022-09-28T14:30:43.587Z,99084.44
2022-09-28T14:33:22.105Z,99063.53
2022-09-28T14:35:55.629Z,99071.25
2022-09-28T14:39:07.332Z,99063.19
2022-09-28T14:41:41.893Z,99062.34
2022-09-28T14:44:11.068Z,99063.37
2022-09-28T14:46:44.433Z,99066.13
2022-09-28T14:49:17.575Z,99054.94
2022-09-28T14:51:53.350Z,99048.16
2022-09-28T14:54:22.145Z,99046.25
2022-09-28T14:56:57.090Z,99038.84
2022-09-28T14:59:25.589Z,99044.91
2022-09-28T15:02:10.600Z,99054.06
2022-09-28T15:04:51.710Z,99046.03
2022-09-28T15:07:25.065Z,99042.75
2022-09-28T15:09:54.262Z,99038.88
2022-09-28T15:12:26.199Z,99041.56
2022-09-28T15:15:04.972Z,99048.81
2022-09-28T15:17:39.176Z,99037.50
2022-09-28T15:20:41.618Z,99045.09
2022-09-28T15:23:25.919Z,99052.03
2022-09-28T15:25:55.061Z,99050.69
2022-09-28T15:28:24.313Z,99042.25
2022-09-28T15:30:58.686Z,99048.84
2022-09-28T15:33:52.645Z,99043.44
2022-09-28T15:36:24.266Z,99037.69
2022-09-28T15:39:07.344Z,99035.41
2022-09-28T15:41:34.373Z,99028.13
2022-09-28T15:44:13.100Z,99037.62
2022-09-28T15:46:42.415Z,99030.19
2022-09-28T15:49:31.583Z,99028.72
2022-09-28T15:52:03.027Z,99032.03
2022-09-28T15:54:38.251Z,99020.75
2022-09-28T15:57:05.112Z,99023.63
2022-09-28T15:59:34.853Z,99014.75
2022-09-28T16:02:16.827Z,99023.81
2022-09-28T16:05:05.414Z,99026.81
2022-09-28T16:07:40.636Z,99034.16
2022-09-28T16:10:13.182Z,99036.66
2022-09-28T16:12:39.882Z,99028.81
2022-09-28T16:15:11.463Z,99028.22
2022-09-28T16:17:38.478Z,99032.19
2022-09-28T16:20:32.363Z,99033.13
2022-09-28T16:23:05.951Z,99029.03
2022-09-28T16:25:35.822Z,99031.13
2022-09-28T16:28:03.445Z,99038.19
2022-09-28T16:30:32.841Z,99036.69
2022-09-28T16:33:05.700Z,99046.59
2022-09-28T16:35:41.067Z,99039.72
2022-09-28T16:38:16.132Z,99039.25
2022-09-28T16:40:54.798Z,99047.56
2022-09-28T16:43:28.371Z,99034.66
2022-09-28T16:46:04.947Z,99040.00
2022-09-28T16:48:37.145Z,99045.84
2022-09-28T16:51:04.045Z,99041.63
2022-09-28T16:53:49.545Z,99044.97
2022-09-28T16:56:16.523Z,99040.78
2022-09-28T16:58:44.213Z,99041.91
2022-09-28T17:01:12.498Z,99042.97
2022-09-28T17:03:42.387Z,99042.09
2022-09-28T17:06:11.940Z,99047.44
2022-09-28T17:08:39.050Z,99041.13
2022-09-28T17:11:16.980Z,99045.91
2022-09-28T17:13:47.192Z,99050.56
2022-09-28T17:16:32.208Z,99044.44
2022-09-28T17:19:23.719Z,99040.81
2022-09-28T17:21:53.144Z,99049.78
2022-09-28T17:24:20.635Z,99042.22
2022-09-28T17:26:49.926Z,99040.31
2022-09-28T17:29:16.933Z,99046.34
2022-09-28T17:31:45.650Z,99041.28
2022-09-28T17:34:15.249Z,99040.31
2022-09-28T17:36:43.320Z,99043.06
2022-09-28T17:39:15.211Z,99034.31
2022-09-28T17:41:42.366Z,99043.00
2022-09-28T17:44:09.713Z,99044.03
2022-09-28T17:46:39.567Z,99039.53
2022-09-28T17:49:10.356Z,99040.78
2022-09-28T17:51:38.373Z,99043.53
2022-09-28T17:54:06.940Z,99041.03
2022-09-28T17:56:35.332Z,99045.06
2022-09-28T17:59:05.907Z,99042.47
2022-09-28T18:01:34.726Z,99044.62
2022-09-28T18:04:03.713Z,99046.38
2022-09-28T18:06:32.615Z,99051.25
2022-09-28T18:08:59.808Z,99057.84
2022-09-28T18:11:26.829Z,99045.91
2022-09-28T18:13:53.702Z,99064.31
2022-09-28T18:16:22.717Z,99063.53
2022-09-28T18:18:49.675Z,99068.72
2022-09-28T18:21:16.471Z,99067.81
2022-09-28T18:23:43.346Z,99073.09
2022-09-28T18:26:12.106Z,99075.59
2022-09-28T18:28:39.605Z,99075.28
2022-09-28T18:31:12.120Z,99082.25
2022-09-28T18:33:39.434Z,99088.72
2022-09-28T18:36:07.843Z,99077.94
2022-09-28T18:38:35.713Z,99081.66
2022-09-28T18:41:15.744Z,99088.84
2022-09-28T18:43:50.316Z,99079.56
2022-09-28T18:46:18.512Z,99082.41
2022-09-28T18:48:47.878Z,99074.00
2022-09-28T18:51:15.354Z,99078.37
2022-09-28T18:53:42.492Z,99081.03
2022-09-28T18:56:13.134Z,99075.81
2022-09-28T18:58:41.473Z,99092.75
2022-09-28T19:01:29.441Z,99085.87
2022-09-28T19:04:06.323Z,99096.66
2022-09-28T19:06:34.744Z,99091.69
2022-09-28T19:09:01.614Z,99097.97
2022-09-28T19:11:28.827Z,99090.12
2022-09-28T19:13:56.414Z,99090.19
2022-09-28T19:16:25.722Z,99093.78
2022-09-28T19:18:53.732Z,99101.84
2022-09-28T19:21:22.764Z,99099.09
2022-09-28T19:23:50.116Z,99092.84
2022-09-28T19:26:20.942Z,99099.97
2022-09-28T19:28:49.008Z,99107.88
2022-09-28T19:31:16.023Z,99106.06
2022-09-28T19:33:45.084Z,99098.94
2022-09-28T19:36:14.966Z,99109.59
2022-09-28T19:38:42.312Z,99107.78
2022-09-28T19:41:11.125Z,99109.69
2022-09-28T19:43:38.572Z,99113.69
2022-09-28T19:46:06.878Z,99098.91
2022-09-28T19:48:34.952Z,99097.59
2022-09-28T19:51:04.316Z,99096.00
2022-09-28T19:53:38.798Z,99093.97
2022-09-28T19:56:05.857Z,99094.84
2022-09-28T19:58:36.650Z,99095.94
2022-09-28T20:01:07.536Z,99092.72
2022-09-28T20:03:34.844Z,99084.44
2022-09-28T20:06:02.647Z,99083.94
2022-09-28T20:08:32.786Z,99085.03
2022-09-28T20:11:00.395Z,99088.44
2022-09-28T20:13:32.534Z,99098.47
2022-09-28T20:16:14.324Z,99100.31
2022-09-28T20:18:44.180Z,99105.62
2022-09-28T20:21:18.109Z,99100.31
2022-09-28T20:23:46.437Z,99099.31
2022-09-28T20:26:14.571Z,99094.94
2022-09-28T20:28:41.929Z,99100.16
2022-09-28T20:31:12.065Z,99094.66
2022-09-28T20:33:39.340Z,99101.56
2022-09-28T20:36:07.856Z,99090.75
2022-09-28T20:38:37.253Z,99077.53
2022-09-28T20:41:04.272Z,99093.13
2022-09-28T20:43:31.505Z,99090.69
2022-09-28T20:45:59.063Z,99085.28
2022-09-28T20:48:26.486Z,99080.81
2022-09-28T20:51:10.417Z,99086.16
2022-09-28T20:53:38.464Z,99082.94
2022-09-28T20:56:16.752Z,99084.88
2022-09-28T20:58:43.560Z,99078.53
2022-09-28T21:01:14.724Z,99080.34
2022-09-28T21:03:47.067Z,99077.69
2022-09-28T21:06:15.228Z,99070.00
2022-09-28T21:08:44.189Z,99059.38
2022-09-28T21:11:15.115Z,99057.34
2022-09-28T21:13:43.013Z,99057.91
2022-09-28T21:16:13.614Z,99060.72
2022-09-28T21:18:41.352Z,99058.28
2022-09-28T21:21:11.933Z,99064.22
2022-09-28T21:23:39.371Z,99057.63
2022-09-28T21:26:09.424Z,99064.47
2022-09-28T21:28:38.209Z,99070.56
2022-09-28T21:31:07.365Z,99058.44
2022-09-28T21:33:34.329Z,99062.09
2022-09-28T21:36:02.425Z,99053.25
2022-09-28T21:38:30.087Z,99043.56
2022-09-28T21:40:58.488Z,99044.28
2022-09-28T21:43:27.117Z,99052.25
2022-09-28T21:45:55.218Z,99048.22
2022-09-28T21:48:24.310Z,99054.25
2022-09-28T21:51:14.087Z,99049.72
2022-09-28T21:53:40.921Z,99033.78
2022-09-28T21:56:10.464Z,99039.00
2022-09-28T21:58:37.315Z,99048.56
2022-09-28T22:01:19.468Z,99055.91
2022-09-28T22:03:56.463Z,99047.31
2022-09-28T22:06:28.044Z,99050.72
2022-09-28T22:08:56.090Z,99061.44
2022-09-28T22:11:25.833Z,99051.31
2022-09-28T22:13:56.199Z,99052.91
2022-09-28T22:16:25.506Z,99053.75
2022-09-28T22:18:55.130Z,99043.91
2022-09-28T22:21:25.091Z,99054.41
2022-09-28T22:23:52.974Z,99050.72
2022-09-28T22:26:25.522Z,99055.06
2022-09-28T22:28:56.611Z,99051.44
2022-09-28T22:31:26.560Z,99046.13
2022-09-28T22:33:54.896Z,99040.91
2022-09-28T22:36:22.380Z,99039.31
2022-09-28T22:38:49.702Z,99043.91
2022-09-28T22:41:20.533Z,99043.25
2022-09-28T22:43:49.436Z,99054.69
2022-09-28T22:46:19.376Z,99048.53
2022-09-28T22:48:47.957Z,99045.00
2022-09-28T22:51:15.712Z,99044.19
2022-09-28T22:53:42.621Z,99041.53
2022-09-28T22:56:12.602Z,99043.19
2022-09-28T22:58:43.009Z,99038.75
2022-09-28T23:01:15.780Z,99043.13
2022-09-28T23:03:44.696Z,99046.84
2022-09-28T23:06:13.558Z,99039.97
2022-09-28T23:08:40.272Z,99041.03
2022-09-28T23:11:07.275Z,99042.03
2022-09-28T23:13:35.167Z,99042.19
2022-09-28T23:16:07.076Z,99029.97
2022-09-28T23:18:36.129Z,99042.25
2022-09-28T23:21:06.470Z,99029.84
2022-09-28T23:23:33.906Z,99047.44
2022-09-28T23:26:09.307Z,99041.19
2022-09-28T23:28:36.276Z,99044.78
2022-09-28T23:31:18.651Z,99043.94
2022-09-28T23:33:46.222Z,99037.94
2022-09-28T23:36:13.427Z,99035.28
2022-09-28T23:38:40.646Z,99031.50
2022-09-28T23:41:08.064Z,99028.88
2022-09-28T23:43:36.197Z,99034.19
2022-09-28T23:46:04.689Z,99007.22
2022-09-28T23:48:32.074Z,99025.59
2022-09-28T23:50:59.047Z,99036.31
2022-09-28T23:53:26.752Z,99031.84
2022-09-28T23:55:53.833Z,99035.41
2022-09-28T23:58:20.958Z,99034.44
